createdAt,value
2022-12-16T00:01:36.896Z,22.60
2022-12-16T00:04:06.271Z,20.70
2022-12-16T00:06:35.470Z,26.67
2022-12-16T00:09:03.669Z,20.93
2022-12-16T00:11:32.369Z,25.17
2022-12-16T00:14:00.492Z,24.57
2022-12-16T00:16:28.731Z,24.10
2022-12-16T00:18:56.694Z,17.83
2022-12-16T00:21:29.589Z,26.43
2022-12-16T00:23:58.170Z,22.77
2022-12-16T00:26:26.207Z,24.13
2022-12-16T00:28:54.161Z,28.00
2022-12-16T00:31:22.951Z,20.53
2022-12-16T00:33:52.933Z,20.60
2022-12-16T00:36:20.878Z,20.30
2022-12-16T00:38:51.944Z,25.30
2022-12-16T00:41:19.939Z,24.23
2022-12-16T00:43:47.874Z,23.83
2022-12-16T00:46:15.978Z,24.93
2022-12-16T00:48:44.119Z,20.10
2022-12-16T00:51:12.007Z,22.63
2022-12-16T00:53:39.968Z,20.23
2022-12-16T00:56:11.718Z,23.03
2022-12-16T00:58:39.719Z,23.53
2022-12-16T01:01:08.329Z,22.80
2022-12-16T01:03:37.051Z,24.60
2022-12-16T01:06:10.218Z,25.50
2022-12-16T01:08:38.135Z,22.90
2022-12-16T01:11:06.359Z,22.93
2022-12-16T01:13:36.072Z,25.23
2022-12-16T01:16:04.438Z,25.23
2022-12-16T01:18:32.891Z,18.20
2022-12-16T01:21:04.852Z,23.43
2022-12-16T01:23:33.541Z,25.97
2022-12-16T01:26:02.829Z,29.50
2022-12-16T01:28:31.159Z,23.33
2022-12-16T01:31:02.527Z,25.70
2022-12-16T01:33:31.649Z,22.97
2022-12-16T01:36:01.765Z,23.53
2022-12-16T01:38:29.722Z,22.53
2022-12-16T01:40:57.750Z,27.27
2022-12-16T01:43:28.212Z,25.00
2022-12-16T01:45:59.794Z,26.60
2022-12-16T01:48:37.282Z,25.70
2022-12-16T01:51:09.157Z,24.93
2022-12-16T01:53:38.483Z,26.90
2022-12-16T01:56:07.595Z,26.40
2022-12-16T01:58:38.100Z,31.37
2022-12-16T02:01:07.137Z,24.83
2022-12-16T02:03:38.043Z,25.20
2022-12-16T02:06:08.399Z,23.93
2022-12-16T02:08:36.786Z,25.70
2022-12-16T02:11:28.814Z,26.60
2022-12-16T02:14:36.931Z,30.57
2022-12-16T02:17:15.955Z,35.43
2022-12-16T02:20:09.996Z,26.90
2022-12-16T02:22:54.025Z,26.90
2022-12-16T02:25:39.886Z,24.37
2022-12-16T02:28:13.286Z,26.10
2022-12-16T02:31:02.847Z,26.83
2022-12-16T02:33:45.056Z,27.00
2022-12-16T02:36:26.468Z,27.17
2022-12-16T02:39:00.737Z,25.80
2022-12-16T02:41:38.745Z,21.53
2022-12-16T02:44:08.977Z,24.70
2022-12-16T02:46:44.250Z,26.20
2022-12-16T02:49:46.173Z,26.77
2022-12-16T02:52:16.228Z,29.37
2022-12-16T02:54:45.706Z,22.33
2022-12-16T02:57:36.321Z,21.33
2022-12-16T03:00:08.886Z,24.93
2022-12-16T03:02:49.327Z,27.27
2022-12-16T03:05:22.470Z,23.77
2022-12-16T03:07:52.947Z,28.40
2022-12-16T03:10:26.856Z,24.30
2022-12-16T03:12:56.488Z,25.77
2022-12-16T03:15:27.553Z,22.47
2022-12-16T03:17:59.689Z,24.37
2022-12-16T03:20:33.180Z,22.37
2022-12-16T03:23:05.034Z,22.10
2022-12-16T03:25:36.576Z,30.03
2022-12-16T03:28:14.896Z,23.40
2022-12-16T03:30:50.221Z,20.73
2022-12-16T03:33:28.240Z,24.37
2022-12-16T03:36:00.680Z,19.60
2022-12-16T03:38:30.843Z,24.10
2022-12-16T03:41:01.163Z,22.83
2022-12-16T03:43:30.328Z,27.00
2022-12-16T03:46:05.098Z,24.97
2022-12-16T03:48:35.490Z,26.10
2022-12-16T03:51:04.096Z,27.30
2022-12-16T03:53:32.695Z,34.03
2022-12-16T03:56:01.324Z,21.50
2022-12-16T03:58:29.503Z,24.13
2022-12-16T04:00:57.729Z,20.90
2022-12-16T04:03:25.806Z,23.00
2022-12-16T04:05:55.395Z,20.37
2022-12-16T04:08:23.824Z,21.43
2022-12-16T04:11:10.230Z,20.40
2022-12-16T04:13:56.045Z,22.50
2022-12-16T04:16:45.311Z,25.27
2022-12-16T04:19:37.405Z,20.97
2022-12-16T04:22:28.118Z,25.80
2022-12-16T04:24:56.584Z,33.60
2022-12-16T04:27:28.412Z,21.53
2022-12-16T04:30:14.191Z,19.23
2022-12-16T04:33:00.364Z,22.33
2022-12-16T04:35:46.167Z,26.70
2022-12-16T04:38:48.367Z,22.93
2022-12-16T04:41:34.212Z,23.00
2022-12-16T04:44:20.556Z,19.30
2022-12-16T04:47:06.613Z,23.10
2022-12-16T04:49:51.793Z,22.70
2022-12-16T04:52:37.978Z,21.50
2022-12-16T04:55:31.680Z,16.20
2022-12-16T04:58:19.382Z,26.03
2022-12-16T05:01:06.970Z,21.30
2022-12-16T05:03:53.961Z,20.70
2022-12-16T05:06:40.336Z,22.50
2022-12-16T05:09:26.929Z,19.67
2022-12-16T05:12:14.671Z,22.27
2022-12-16T05:15:00.853Z,25.20
2022-12-16T05:17:46.433Z,20.33
2022-12-16T05:20:32.523Z,25.70
2022-12-16T05:23:18.502Z,23.10
2022-12-16T05:26:03.940Z,20.67
2022-12-16T05:28:50.865Z,23.43
2022-12-16T05:31:36.498Z,21.93
2022-12-16T05:34:22.657Z,20.77
2022-12-16T05:37:08.932Z,18.50
2022-12-16T05:39:57.049Z,23.37
2022-12-16T05:42:43.876Z,24.93
2022-12-16T05:45:30.910Z,26.10
2022-12-16T05:48:16.789Z,22.33
2022-12-16T05:51:02.357Z,23.30
2022-12-16T05:53:48.099Z,20.83
2022-12-16T05:56:34.048Z,24.93
2022-12-16T05:59:19.834Z,20.03
2022-12-16T06:02:09.837Z,21.77
2022-12-16T06:04:58.028Z,26.20
2022-12-16T06:07:44.481Z,27.17
2022-12-16T06:10:33.386Z,18.10
2022-12-16T06:13:19.465Z,19.40
2022-12-16T06:16:08.977Z,19.53
2022-12-16T06:18:56.942Z,16.27
2022-12-16T06:21:43.108Z,24.43
2022-12-16T06:24:28.808Z,18.43
2022-12-16T06:27:15.751Z,16.17
2022-12-16T06:30:02.135Z,20.17
2022-12-16T06:32:56.342Z,18.07
2022-12-16T06:35:43.502Z,21.63
2022-12-16T06:38:30.561Z,23.10
2022-12-16T06:41:16.676Z,16.00
2022-12-16T06:44:08.265Z,20.33
2022-12-16T06:46:54.033Z,21.73
2022-12-16T06:50:01.093Z,18.37
2022-12-16T06:52:51.601Z,16.33
2022-12-16T06:55:37.435Z,14.97
2022-12-16T06:58:23.111Z,27.47
2022-12-16T07:01:09.641Z,15.87
2022-12-16T07:03:55.999Z,17.43
2022-12-16T07:06:41.358Z,25.13
2022-12-16T07:09:28.967Z,18.10
2022-12-16T07:12:16.869Z,21.27
2022-12-16T07:15:05.413Z,17.63
2022-12-16T07:17:53.265Z,19.07
2022-12-16T07:20:39.111Z,19.57
2022-12-16T07:23:24.482Z,22.27
2022-12-16T07:26:11.964Z,18.33
2022-12-16T07:28:57.998Z,19.53
2022-12-16T07:32:02.223Z,21.43
2022-12-16T07:34:50.317Z,15.40
2022-12-16T07:37:42.624Z,16.37
2022-12-16T07:40:29.307Z,17.03
2022-12-16T07:43:29.013Z,17.70
2022-12-16T07:46:15.433Z,21.97
2022-12-16T07:49:03.074Z,15.20
2022-12-16T07:51:49.821Z,14.80
2022-12-16T07:54:35.576Z,16.10
2022-12-16T07:57:22.594Z,19.93
2022-12-16T08:00:10.288Z,21.50
2022-12-16T08:02:56.139Z,17.50
2022-12-16T08:05:42.028Z,23.20
2022-12-16T08:08:27.741Z,11.90
2022-12-16T08:11:13.579Z,19.23
2022-12-16T08:13:59.951Z,17.57
2022-12-16T08:16:47.009Z,14.20
2022-12-16T08:19:33.727Z,13.23
2022-12-16T08:22:19.387Z,22.07
2022-12-16T08:25:19.935Z,21.70
2022-12-16T08:28:05.807Z,12.70
2022-12-16T08:30:51.592Z,12.43
2022-12-16T08:33:42.487Z,13.40
2022-12-16T08:36:28.391Z,14.63
2022-12-16T08:39:13.923Z,16.53
2022-12-16T08:41:59.254Z,15.13
2022-12-16T08:44:44.607Z,17.63
2022-12-16T08:47:30.298Z,35.47
2022-12-16T08:50:17.059Z,22.67
2022-12-16T08:53:02.736Z,15.07
2022-12-16T08:55:48.229Z,23.07
2022-12-16T08:58:34.382Z,15.37
2022-12-16T09:01:19.980Z,13.57
2022-12-16T09:04:05.374Z,19.07
2022-12-16T09:06:52.398Z,18.13
2022-12-16T09:09:39.671Z,21.93
2022-12-16T09:12:26.377Z,22.10
2022-12-16T09:15:16.426Z,21.17
2022-12-16T09:18:01.987Z,22.33
2022-12-16T09:20:47.699Z,27.90
2022-12-16T09:23:34.880Z,16.63
2022-12-16T09:26:20.431Z,17.20
2022-12-16T09:29:06.030Z,22.40
2022-12-16T09:31:51.515Z,25.50
2022-12-16T09:34:36.975Z,19.03
2022-12-16T09:37:22.695Z,22.60
2022-12-16T09:40:09.772Z,22.77
2022-12-16T09:43:07.514Z,26.53
2022-12-16T09:46:03.703Z,20.57
2022-12-16T09:48:58.365Z,15.40
2022-12-16T09:51:44.846Z,20.17
2022-12-16T09:54:33.648Z,20.80
2022-12-16T09:57:25.660Z,23.23
2022-12-16T10:00:27.448Z,20.97
2022-12-16T10:03:14.820Z,25.20
2022-12-16T10:06:13.420Z,25.40
2022-12-16T10:09:05.738Z,18.33
2022-12-16T10:12:06.196Z,20.20
2022-12-16T10:14:59.712Z,18.37
2022-12-16T10:17:45.375Z,16.63
2022-12-16T10:20:39.400Z,20.60
2022-12-16T10:23:36.526Z,21.97
2022-12-16T10:26:26.751Z,20.90
2022-12-16T10:29:20.917Z,16.00
2022-12-16T10:32:07.617Z,25.17
2022-12-16T10:34:58.428Z,16.10
2022-12-16T10:37:51.095Z,18.07
2022-12-16T10:40:40.494Z,17.43
2022-12-16T10:43:38.785Z,22.90
2022-12-16T10:46:30.588Z,18.30
2022-12-16T10:49:17.695Z,19.00
2022-12-16T10:52:08.938Z,20.70
2022-12-16T10:55:00.225Z,20.33
2022-12-16T10:57:59.628Z,16.57
2022-12-16T11:00:59.625Z,19.60
2022-12-16T11:03:47.559Z,18.43
2022-12-16T11:06:39.696Z,15.40
2022-12-16T11:09:50.551Z,13.83
2022-12-16T11:12:42.910Z,18.70
2022-12-16T11:15:46.390Z,18.20
2022-12-16T11:18:34.337Z,19.93
2022-12-16T11:21:27.621Z,28.73
2022-12-16T11:24:33.887Z,20.00
2022-12-16T11:27:21.502Z,19.60
2022-12-16T11:30:12.424Z,19.40
2022-12-16T11:33:02.187Z,17.17
2022-12-16T11:35:50.860Z,21.17
2022-12-16T11:38:46.815Z,19.00
2022-12-16T11:41:42.589Z,23.00
2022-12-16T11:44:36.180Z,18.53
2022-12-16T11:47:23.720Z,21.27
2022-12-16T11:50:18.400Z,21.17
2022-12-16T11:53:13.860Z,25.27
2022-12-16T11:56:07.731Z,24.00
2022-12-16T11:59:04.302Z,18.40
2022-12-16T12:01:55.473Z,20.60
2022-12-16T12:04:41.423Z,24.60
2022-12-16T12:07:45.901Z,20.13
2022-12-16T12:11:01.855Z,21.30
2022-12-16T12:14:08.942Z,21.97
2022-12-16T12:17:04.127Z,29.17
2022-12-16T12:20:03.216Z,21.07
2022-12-16T12:22:54.198Z,28.33
2022-12-16T12:25:46.672Z,20.07
2022-12-16T12:28:46.906Z,23.73
2022-12-16T12:31:50.771Z,22.97
2022-12-16T12:34:47.199Z,17.97
2022-12-16T12:37:41.692Z,32.47
2022-12-16T12:40:40.796Z,21.73
2022-12-16T12:43:39.779Z,19.57
2022-12-16T12:46:38.773Z,24.73
2022-12-16T12:49:31.842Z,24.17
2022-12-16T12:52:25.425Z,24.70
2022-12-16T12:55:16.793Z,19.80
2022-12-16T12:58:00.928Z,21.73
2022-12-16T13:00:49.153Z,27.63
2022-12-16T13:03:46.982Z,32.20
2022-12-16T13:06:33.656Z,25.13
2022-12-16T13:09:19.615Z,25.50
2022-12-16T13:12:41.307Z,23.73
2022-12-16T13:15:27.488Z,21.27
2022-12-16T13:18:39.834Z,28.20
2022-12-16T13:22:05.958Z,20.10
2022-12-16T13:25:03.167Z,24.73
2022-12-16T13:28:05.054Z,24.17
2022-12-16T13:30:49.260Z,21.17
2022-12-16T13:33:48.575Z,22.97
2022-12-16T13:36:36.632Z,23.00
2022-12-16T13:39:41.561Z,23.87
2022-12-16T13:43:07.284Z,22.03
2022-12-16T13:45:56.372Z,24.00
2022-12-16T13:48:48.857Z,19.70
2022-12-16T13:52:25.525Z,21.67
2022-12-16T13:55:30.496Z,23.37
2022-12-16T13:58:23.888Z,24.93
2022-12-16T14:01:22.619Z,22.83
2022-12-16T14:04:11.300Z,24.77
2022-12-16T14:07:00.637Z,25.90
2022-12-16T14:09:54.215Z,21.27
2022-12-16T14:13:04.001Z,25.90
2022-12-16T14:15:59.473Z,21.77
2022-12-16T14:18:57.392Z,25.90
2022-12-16T14:21:50.066Z,22.60
2022-12-16T14:24:42.439Z,25.00
2022-12-16T14:27:33.493Z,22.17
2022-12-16T14:30:21.713Z,22.27
2022-12-16T14:33:07.191Z,27.20
2022-12-16T14:35:52.870Z,31.27
2022-12-16T14:38:44.028Z,26.23
2022-12-16T14:41:31.283Z,24.93
2022-12-16T14:44:16.961Z,24.53
2022-12-16T14:47:23.562Z,24.17
2022-12-16T14:50:11.340Z,26.87
2022-12-16T14:52:57.810Z,27.70
2022-12-16T14:55:47.260Z,22.53
2022-12-16T14:58:35.298Z,27.27
2022-12-16T15:01:23.760Z,30.07
2022-12-16T15:04:11.514Z,25.53
2022-12-16T15:07:00.253Z,28.07
2022-12-16T15:09:49.409Z,27.97
2022-12-16T15:12:39.974Z,30.00
2022-12-16T15:15:32.556Z,26.63
2022-12-16T15:18:20.207Z,26.17
2022-12-16T15:21:10.829Z,24.07
2022-12-16T15:24:00.371Z,26.00
2022-12-16T15:26:49.054Z,29.20
2022-12-16T15:29:47.569Z,23.40
2022-12-16T15:32:48.227Z,25.93
2022-12-16T15:35:44.561Z,26.20
2022-12-16T15:38:41.045Z,35.73
2022-12-16T15:41:40.160Z,28.80
2022-12-16T15:44:33.038Z,28.63
2022-12-16T15:47:19.088Z,24.83
2022-12-16T15:50:07.162Z,23.43
2022-12-16T15:52:56.380Z,27.77
2022-12-16T15:55:47.613Z,25.77
2022-12-16T15:58:37.812Z,25.67
2022-12-16T16:01:25.049Z,29.30
2022-12-16T16:04:12.405Z,29.00
2022-12-16T16:07:00.574Z,27.53
2022-12-16T16:09:48.126Z,23.50
2022-12-16T16:12:36.532Z,28.53
2022-12-16T16:15:23.455Z,27.43
2022-12-16T16:18:13.349Z,27.67
2022-12-16T16:20:59.376Z,22.70
2022-12-16T16:23:44.838Z,24.37
2022-12-16T16:26:31.762Z,23.80
2022-12-16T16:29:18.910Z,25.77
2022-12-16T16:32:04.943Z,23.67
2022-12-16T16:34:50.628Z,27.63
2022-12-16T16:37:38.300Z,22.73
2022-12-16T16:40:36.157Z,24.87
2022-12-16T16:43:18.031Z,26.10
2022-12-16T16:46:21.182Z,25.60
2022-12-16T16:49:07.468Z,23.90
2022-12-16T16:51:53.238Z,25.63
2022-12-16T16:54:38.666Z,31.90
2022-12-16T16:57:24.504Z,29.20
2022-12-16T17:00:10.143Z,26.70
2022-12-16T17:02:57.337Z,26.50
2022-12-16T17:05:42.856Z,24.77
2022-12-16T17:08:28.678Z,23.97
2022-12-16T17:11:15.174Z,22.20
2022-12-16T17:14:00.683Z,22.87
2022-12-16T17:17:00.815Z,23.40
2022-12-16T17:19:47.675Z,26.40
2022-12-16T17:22:33.494Z,28.13
2022-12-16T17:25:20.987Z,25.47
2022-12-16T17:28:06.592Z,24.27
2022-12-16T17:30:57.452Z,24.37
2022-12-16T17:33:43.588Z,23.93
2022-12-16T17:36:33.034Z,27.20
2022-12-16T17:39:18.679Z,28.23
2022-12-16T17:42:04.316Z,28.97
2022-12-16T17:44:56.225Z,28.47
2022-12-16T17:47:42.693Z,24.60
2022-12-16T17:50:28.699Z,32.37
2022-12-16T17:53:17.430Z,27.10
2022-12-16T17:56:04.259Z,28.30
2022-12-16T17:58:52.441Z,33.60
2022-12-16T18:01:39.674Z,34.90
2022-12-16T18:04:25.863Z,27.73
2022-12-16T18:07:12.219Z,26.90
2022-12-16T18:09:59.526Z,26.97
2022-12-16T18:12:45.440Z,29.10
2022-12-16T18:15:32.077Z,24.83
2022-12-16T18:18:17.539Z,28.57
2022-12-16T18:21:03.778Z,30.77
2022-12-16T18:23:49.846Z,32.70
2022-12-16T18:26:37.153Z,27.67
2022-12-16T18:29:22.710Z,29.20
2022-12-16T18:32:08.996Z,27.57
2022-12-16T18:34:57.378Z,26.60
2022-12-16T18:37:49.911Z,28.20
2022-12-16T18:40:36.053Z,26.20
2022-12-16T18:43:23.765Z,25.27
2022-12-16T18:46:12.561Z,30.20
2022-12-16T18:48:58.079Z,34.47
2022-12-16T18:51:43.592Z,33.50
2022-12-16T18:54:29.005Z,28.67
2022-12-16T18:57:14.381Z,30.67
2022-12-16T19:00:01.171Z,30.40
2022-12-16T19:02:46.843Z,30.43
2022-12-16T19:05:32.312Z,25.87
2022-12-16T19:08:17.935Z,31.20
2022-12-16T19:11:03.560Z,28.20
2022-12-16T19:13:48.829Z,29.53
2022-12-16T19:16:35.635Z,33.10
2022-12-16T19:19:21.326Z,35.77
2022-12-16T19:22:06.946Z,36.73
2022-12-16T19:24:59.701Z,32.33
2022-12-16T19:27:45.420Z,30.53
2022-12-16T19:30:31.034Z,37.17
2022-12-16T19:33:18.014Z,37.60
2022-12-16T19:36:03.384Z,30.83
2022-12-16T19:38:48.873Z,33.00
2022-12-16T19:41:35.456Z,36.97
2022-12-16T19:44:21.171Z,27.30
2022-12-16T19:47:06.970Z,36.43
2022-12-16T19:49:54.721Z,31.30
2022-12-16T19:52:40.400Z,30.57
2022-12-16T19:55:26.318Z,42.13
2022-12-16T19:58:12.195Z,30.93
2022-12-16T20:00:57.912Z,35.60
2022-12-16T20:03:55.212Z,33.23
2022-12-16T20:06:43.619Z,31.97
2022-12-16T20:09:25.562Z,33.50
2022-12-16T20:12:11.409Z,32.20
2022-12-16T20:14:57.857Z,30.37
2022-12-16T20:17:43.575Z,36.03
2022-12-16T20:20:29.751Z,28.10
2022-12-16T20:23:16.839Z,32.87
2022-12-16T20:26:02.300Z,38.60
2022-12-16T20:28:47.993Z,34.60
2022-12-16T20:31:36.174Z,35.00
2022-12-16T20:34:20.826Z,38.17
2022-12-16T20:37:17.898Z,31.43
2022-12-16T20:40:05.000Z,32.33
2022-12-16T20:42:50.439Z,34.77
2022-12-16T20:45:36.626Z,40.60
2022-12-16T20:48:22.822Z,33.83
2022-12-16T20:51:12.930Z,36.10
2022-12-16T20:53:58.682Z,33.30
2022-12-16T20:56:46.266Z,37.33
2022-12-16T20:59:32.078Z,30.43
2022-12-16T21:02:29.072Z,40.10
2022-12-16T21:05:17.958Z,35.07
2022-12-16T21:08:03.637Z,36.40
2022-12-16T21:10:48.901Z,34.63
2022-12-16T21:13:36.810Z,34.40
2022-12-16T21:16:24.995Z,32.70
2022-12-16T21:19:10.986Z,31.60
2022-12-16T21:21:56.863Z,36.03
2022-12-16T21:24:42.436Z,33.63
2022-12-16T21:27:28.564Z,40.10
2022-12-16T21:30:15.236Z,35.97
2022-12-16T21:33:01.023Z,35.77
2022-12-16T21:35:46.606Z,32.40
2022-12-16T21:38:32.020Z,33.30
2022-12-16T21:41:17.440Z,35.90
2022-12-16T21:44:02.923Z,34.73
2022-12-16T21:46:49.972Z,34.80
2022-12-16T21:49:35.314Z,33.97
2022-12-16T21:52:20.863Z,37.33
2022-12-16T21:55:06.212Z,41.50
2022-12-16T21:57:53.277Z,34.77
2022-12-16T22:00:39.442Z,39.50
2022-12-16T22:03:26.372Z,33.57
2022-12-16T22:06:11.660Z,41.50
2022-12-16T22:08:57.303Z,40.07
2022-12-16T22:11:41.827Z,34.77
2022-12-16T22:14:27.379Z,30.00
2022-12-16T22:17:13.094Z,31.60
2022-12-16T22:20:00.323Z,35.50
2022-12-16T22:22:45.946Z,34.63
2022-12-16T22:25:31.714Z,34.83
2022-12-16T22:28:17.240Z,33.00
2022-12-16T22:31:02.897Z,35.20
2022-12-16T22:33:48.953Z,40.83
2022-12-16T22:36:35.940Z,35.27
2022-12-16T22:39:21.423Z,34.67
2022-12-16T22:42:06.985Z,35.70
2022-12-16T22:44:52.506Z,35.00
2022-12-16T22:47:42.212Z,34.70
2022-12-16T22:50:33.040Z,37.57
2022-12-16T22:53:19.624Z,33.37
2022-12-16T22:56:09.170Z,30.67
2022-12-16T22:58:55.211Z,37.03
2022-12-16T23:01:42.652Z,38.33
2022-12-16T23:04:28.518Z,43.03
2022-12-16T23:07:14.551Z,34.30
2022-12-16T23:10:01.396Z,35.43
2022-12-16T23:12:46.779Z,35.77
2022-12-16T23:15:32.944Z,40.00
2022-12-16T23:18:18.475Z,40.00
2022-12-16T23:21:05.186Z,38.03
2022-12-16T23:23:51.042Z,35.33
2022-12-16T23:26:39.593Z,35.30
2022-12-16T23:29:25.161Z,37.13
2022-12-16T23:32:10.832Z,42.90
2022-12-16T23:34:59.457Z,38.47
2022-12-16T23:37:44.919Z,34.53
2022-12-16T23:40:39.098Z,38.30
2022-12-16T23:43:26.293Z,36.57
2022-12-16T23:46:11.633Z,35.67
2022-12-16T23:48:57.181Z,39.27
2022-12-16T23:51:42.937Z,39.07
2022-12-16T23:54:28.451Z,41.77
2022-12-16T23:57:14.279Z,34.80
